• Join FlightAware (Why Join?)
  • Login
  • US Flag 
05:56AM EDT


 

Airport Tracker/Info


-or-


 

Live Flight TrackerFlight Track Log ✈ N920AC ✈ 10-Jul-2013 ✈ KAPF - KORL

Flight Track Log - Related Links

Times and Time Zones

All times are in EDT time to prevent confusion due to time zone crossing. See the N920AC flight status page for this flight to view local times or setup timezone preferences in your user account.

Time Position Orientation Groundspeed Altitude Reporting Facility
EDT Latitude Longitude Course Direction KTS MPH feet Rate Location/Type
11:14AM 26.5058 -81.6872 North 87 100 7,300  Level Miami Center
11:15AM 26.5333 -81.6814 11° North 95 109 7,500 120 Climbing Miami Center
11:16AM 26.5583 -81.6778 North 95 109 7,600 60 Climbing Miami Center
11:17AM 26.9989 -81.6212 North  Level Estimated
11:17AM 26.5775 -81.6669 27° Northeast 89 102 7,700  Level Miami Center
11:18AM 27.0371 -81.6142 North  Level Estimated
11:18AM 26.6011 -81.6539 26° Northeast 86 99 7,800  Level Miami Center
11:19AM 27.0753 -81.6072 North  Level Estimated
11:19AM 26.6225 -81.6386 33° Northeast 91 105 8,100  Level Miami Center
11:20AM 26.6394 -81.6278 30° Northeast 91 105 8,300 120 Climbing Miami Center
11:21AM 26.6628 -81.6194 18° North 91 105 8,400 60 Climbing Miami Center
11:22AM 26.6858 -81.6156 North 96 110 8,500  Climbing Miami Center
11:23AM 26.7172 -81.6075 13° North 96 110 8,500  Level Miami Center
11:24AM 26.7425 -81.6064 North 96 110 8,500  Level Miami Center
11:25AM 26.7678 -81.5956 21° North 96 110 8,500  Level Miami Center
11:26AM 26.7950 -81.5922 North 96 110 8,500  Level Miami Center
11:27AM 26.8222 -81.5908 North 96 110 8,500  Level Miami Center
11:28AM 26.8475 -81.5872 North 91 105 8,500  Level Miami Center
11:29AM 26.8706 -81.5836 North 91 105 8,600  Climbing Miami Center
11:30AM 26.9000 -81.5778 10° North 99 114 8,500 -60 Descending Miami Center
11:31AM 26.9272 -81.5742 North 99 114 8,500 -60 Level Miami Center
11:32AM 26.9522 -81.5728 North 94 108 8,400  Descending Miami Center
11:33AM 26.9769 -81.5808 344° North 94 108 8,500  Climbing Miami Center
11:34AM 27.0019 -81.5842 353° North 94 108 8,500  Level Miami Center
11:35AM 27.0311 -81.5878 354° North 94 108 8,600 -540 Climbing Miami Center
11:36AM 27.0564 -81.5817 12° North 88 101 7,500 -120 Descending Miami Center
11:37AM 27.0794 -81.5758 13° North 88 101 8,400 480 Climbing Miami Center
11:38AM 27.1047 -81.5675 16° North 88 101 8,500  Climbing Miami Center
11:39AM 27.1281 -81.5614 13° North 88 101 8,500  Level Miami Center
11:40AM 27.1533 -81.5508 20° North 88 101 8,600  Climbing Miami Center
11:41AM 27.1747 -81.5400 24° Northeast 88 101 8,600  Level Miami Center
11:42AM 27.2000 -81.5292 21° North 88 101 8,600  Level Miami Center
11:43AM 27.2233 -81.5208 18° North 88 101 8,600  Level Miami Center
11:44AM 27.2486 -81.5125 16° North 88 101 8,600  Level Miami Center
11:45AM 27.2719 -81.4994 26° Northeast 88 101 8,600 -60 Level Miami Center
11:46AM 27.2872 -81.4814 46° Northeast 88 101 8,500 -60 Descending Miami Center
11:47AM 27.3106 -81.4636 34° Northeast 82 94 8,500  Level Miami Center
11:48AM 27.3281 -81.4456 43° Northeast 82 94 8,500  Level Miami Center
11:49AM 27.3431 -81.4253 50° Northeast 82 94 8,500 -60 Level Miami Center
11:50AM 27.3603 -81.4094 39° Northeast 82 94 8,400 -60 Descending Miami Center
11:51AM 27.3875 -81.4083 North 82 94 8,400  Level Miami Center
11:52AM 27.4144 -81.4142 349° North 87 100 8,400  Level Miami Center
11:53AM 27.4436 -81.4197 350° North 92 106 8,400 60 Level Miami Center
11:54AM 27.4703 -81.4281 345° North 92 106 8,600 60 Climbing Miami Center
11:55AM 27.4972 -81.4361 345° North 92 106 8,600  Level Miami Center
11:56AM 27.5225 -81.4300 12° North 92 106 8,700 -120 Climbing Miami Center
11:57AM 27.5458 -81.4169 26° Northeast 82 94 8,400 -360 Descending Miami Center
11:58AM 27.5711 -81.4086 16° North 89 102 8,000 -600 Descending Miami Center
11:59AM 27.5925 -81.3931 33° Northeast 89 102 7,300 -840 Descending Miami Center
12:00PM 27.6200 -81.3800 23° Northeast 95 109 6,400 -900 Descending Miami Center
12:01PM 27.6469 -81.3906 341° North 95 109 5,600 -840 Descending Miami Center
12:02PM 27.6758 -81.3986 346° North 107 123 4,800 -840 Descending Miami Center
12:03PM 27.7008 -81.3972 North 102 117 4,000 -660 Descending Miami Center
12:04PM 27.7244 -81.3819 30° Northeast 79 91 3,500 -300 Descending Miami Center
12:05PM 27.7517 -81.3758 11° North 87 100 3,500  Level Miami Center
12:07PM 27.8000 -81.3667 10° North 100 115 3,500  Level Orlando TRACON
12:08PM 27.8167 -81.3500 41° Northeast 106 122 3,500  Level Orlando TRACON
12:08PM 27.8500 -81.3667 336° Northwest 102 117 3,500 -120 Level Orlando TRACON
12:09PM 27.8667 -81.3667 360° North 94 108 3,300 -300 Descending Orlando TRACON
12:11PM 27.9000 -81.3500 24° Northeast 102 117 2,900 -360 Descending Orlando TRACON
12:12PM 27.9333 -81.3500 360° North 100 115 2,600 -240 Descending Orlando TRACON
12:12PM 27.9500 -81.3667 319° Northwest 103 119 2,500 -60 Descending Orlando TRACON
12:13PM 27.9833 -81.3667 360° North 100 115 2,500  Level Orlando TRACON
12:14PM 28.0000 -81.3667 360° North 100 115 2,500  Level Orlando TRACON
12:15PM 28.0333 -81.3667 360° North 101 116 2,500  Level Orlando TRACON
12:16PM 28.0667 -81.3833 336° Northwest 103 119 2,500  Level Orlando TRACON
12:17PM 28.0833 -81.4000 319° Northwest 104 120 2,600  Climbing Orlando TRACON
12:18PM 28.1167 -81.4000 360° North 104 120 2,500 -120 Descending Orlando TRACON